sensor_id;sensor_type;location;lat;lon;timestamp;temperature;humidity
65207;SHT31;58477;48.072;11.970;2023-05-17T00:00:16;7.55;96.59
65207;SHT31;58477;48.072;11.970;2023-05-17T00:02:41;7.49;96.34
65207;SHT31;58477;48.072;11.970;2023-05-17T00:05:07;7.48;96.71
65207;SHT31;58477;48.072;11.970;2023-05-17T00:07:33;7.50;96.01
65207;SHT31;58477;48.072;11.970;2023-05-17T00:09:58;7.39;96.14
65207;SHT31;58477;48.072;11.970;2023-05-17T00:12:24;7.42;96.76
65207;SHT31;58477;48.072;11.970;2023-05-17T00:14:49;7.38;97.05
65207;SHT31;58477;48.072;11.970;2023-05-17T00:17:14;7.40;96.34
65207;SHT31;58477;48.072;11.970;2023-05-17T00:19:40;7.30;95.36
65207;SHT31;58477;48.072;11.970;2023-05-17T00:22:06;7.25;95.05
65207;SHT31;58477;48.072;11.970;2023-05-17T00:24:31;7.32;96.11
65207;SHT31;58477;48.072;11.970;2023-05-17T00:26:57;7.28;96.21
65207;SHT31;58477;48.072;11.970;2023-05-17T00:29:22;7.26;95.80
65207;SHT31;58477;48.072;11.970;2023-05-17T00:31:48;7.20;95.75
65207;SHT31;58477;48.072;11.970;2023-05-17T00:34:13;7.14;95.49
65207;SHT31;58477;48.072;11.970;2023-05-17T00:36:38;7.23;96.11
65207;SHT31;58477;48.072;11.970;2023-05-17T00:39:04;7.18;95.98
65207;SHT31;58477;48.072;11.970;2023-05-17T00:41:30;7.19;96.71
65207;SHT31;58477;48.072;11.970;2023-05-17T00:43:55;7.15;96.98
65207;SHT31;58477;48.072;11.970;2023-05-17T00:46:21;7.14;96.94
65207;SHT31;58477;48.072;11.970;2023-05-17T00:48:46;7.14;96.25
65207;SHT31;58477;48.072;11.970;2023-05-17T00:51:13;7.18;96.54
65207;SHT31;58477;48.072;11.970;2023-05-17T00:53:40;7.08;96.33
65207;SHT31;58477;48.072;11.970;2023-05-17T00:56:07;7.08;96.22
65207;SHT31;58477;48.072;11.970;2023-05-17T00:58:33;7.08;96.30
65207;SHT31;58477;48.072;11.970;2023-05-17T01:00:59;7.09;96.33
65207;SHT31;58477;48.072;11.970;2023-05-17T01:03:26;7.05;96.45
65207;SHT31;58477;48.072;11.970;2023-05-17T01:05:52;7.04;96.62
65207;SHT31;58477;48.072;11.970;2023-05-17T01:08:17;7.06;96.72
65207;SHT31;58477;48.072;11.970;2023-05-17T01:10:56;7.04;96.59
65207;SHT31;58477;48.072;11.970;2023-05-17T01:13:53;7.01;97.12
65207;SHT31;58477;48.072;11.970;2023-05-17T01:16:41;7.04;96.45
65207;SHT31;58477;48.072;11.970;2023-05-17T01:25:00;6.92;96.55
65207;SHT31;58477;48.072;11.970;2023-05-17T01:27:29;6.92;97.12
65207;SHT31;58477;48.072;11.970;2023-05-17T01:29:55;6.88;97.38
65207;SHT31;58477;48.072;11.970;2023-05-17T01:32:23;6.91;97.38
65207;SHT31;58477;48.072;11.970;2023-05-17T01:34:50;6.84;97.36
65207;SHT31;58477;48.072;11.970;2023-05-17T01:37:16;6.87;97.14
65207;SHT31;58477;48.072;11.970;2023-05-17T01:39:41;6.88;96.49
65207;SHT31;58477;48.072;11.970;2023-05-17T01:42:22;6.87;96.72
65207;SHT31;58477;48.072;11.970;2023-05-17T01:45:10;6.92;96.54
65207;SHT31;58477;48.072;11.970;2023-05-17T01:50:31;6.92;96.43
65207;SHT31;58477;48.072;11.970;2023-05-17T01:53:10;6.84;96.65
65207;SHT31;58477;48.072;11.970;2023-05-17T01:58:08;6.74;96.49
65207;SHT31;58477;48.072;11.970;2023-05-17T02:00:35;6.88;96.75
65207;SHT31;58477;48.072;11.970;2023-05-17T02:03:00;6.81;96.35
65207;SHT31;58477;48.072;11.970;2023-05-17T02:05:26;6.68;96.90
65207;SHT31;58477;48.072;11.970;2023-05-17T02:07:51;6.73;97.26
65207;SHT31;58477;48.072;11.970;2023-05-17T02:10:16;6.63;96.80
65207;SHT31;58477;48.072;11.970;2023-05-17T02:12:42;6.68;96.79
65207;SHT31;58477;48.072;11.970;2023-05-17T02:15:08;6.64;96.63
65207;SHT31;58477;48.072;11.970;2023-05-17T02:17:37;6.64;96.75
65207;SHT31;58477;48.072;11.970;2023-05-17T02:20:06;6.60;96.84
65207;SHT31;58477;48.072;11.970;2023-05-17T02:22:31;6.60;97.29
65207;SHT31;58477;48.072;11.970;2023-05-17T02:24:57;6.57;96.77
65207;SHT31;58477;48.072;11.970;2023-05-17T02:27:22;6.57;97.26
65207;SHT31;58477;48.072;11.970;2023-05-17T02:29:47;6.60;97.15
65207;SHT31;58477;48.072;11.970;2023-05-17T02:32:13;6.61;97.21
65207;SHT31;58477;48.072;11.970;2023-05-17T02:34:38;6.61;97.08
65207;SHT31;58477;48.072;11.970;2023-05-17T02:37:04;6.67;97.41
65207;SHT31;58477;48.072;11.970;2023-05-17T02:39:31;6.57;97.80
65207;SHT31;58477;48.072;11.970;2023-05-17T02:41:57;6.55;97.77
65207;SHT31;58477;48.072;11.970;2023-05-17T02:44:23;6.51;97.70
65207;SHT31;58477;48.072;11.970;2023-05-17T02:46:48;6.53;97.12
65207;SHT31;58477;48.072;11.970;2023-05-17T02:49:13;6.58;97.27
65207;SHT31;58477;48.072;11.970;2023-05-17T02:51:39;6.53;97.66
65207;SHT31;58477;48.072;11.970;2023-05-17T02:54:04;6.45;96.99
65207;SHT31;58477;48.072;11.970;2023-05-17T02:56:30;6.55;97.19
65207;SHT31;58477;48.072;11.970;2023-05-17T02:58:55;6.60;97.24
65207;SHT31;58477;48.072;11.970;2023-05-17T03:01:22;6.61;98.24
65207;SHT31;58477;48.072;11.970;2023-05-17T03:03:48;6.50;98.05
65207;SHT31;58477;48.072;11.970;2023-05-17T03:06:14;6.55;97.82
65207;SHT31;58477;48.072;11.970;2023-05-17T03:08:39;6.47;97.48
65207;SHT31;58477;48.072;11.970;2023-05-17T03:11:06;6.48;97.59
65207;SHT31;58477;48.072;11.970;2023-05-17T03:13:32;6.58;97.49
65207;SHT31;58477;48.072;11.970;2023-05-17T03:15:57;6.58;97.51
65207;SHT31;58477;48.072;11.970;2023-05-17T03:18:23;6.54;97.69
65207;SHT31;58477;48.072;11.970;2023-05-17T03:20:49;6.55;97.37
65207;SHT31;58477;48.072;11.970;2023-05-17T03:23:16;6.61;97.36
65207;SHT31;58477;48.072;11.970;2023-05-17T03:25:51;6.61;97.39
65207;SHT31;58477;48.072;11.970;2023-05-17T03:28:17;6.60;97.77
65207;SHT31;58477;48.072;11.970;2023-05-17T03:30:43;6.44;98.22
65207;SHT31;58477;48.072;11.970;2023-05-17T03:33:09;6.47;97.65
65207;SHT31;58477;48.072;11.970;2023-05-17T03:35:34;6.50;98.21
65207;SHT31;58477;48.072;11.970;2023-05-17T03:37:59;6.57;97.90
65207;SHT31;58477;48.072;11.970;2023-05-17T03:40:25;6.54;97.64
65207;SHT31;58477;48.072;11.970;2023-05-17T03:42:50;6.53;98.22
65207;SHT31;58477;48.072;11.970;2023-05-17T03:45:17;6.58;97.85
65207;SHT31;58477;48.072;11.970;2023-05-17T03:47:42;6.54;97.98
65207;SHT31;58477;48.072;11.970;2023-05-17T03:50:09;6.47;97.77
65207;SHT31;58477;48.072;11.970;2023-05-17T03:52:35;6.41;98.41
65207;SHT31;58477;48.072;11.970;2023-05-17T03:55:00;6.44;97.92
65207;SHT31;58477;48.072;11.970;2023-05-17T03:57:26;6.48;97.79
65207;SHT31;58477;48.072;11.970;2023-05-17T03:59:52;6.38;98.32
65207;SHT31;58477;48.072;11.970;2023-05-17T04:02:19;6.48;98.11
65207;SHT31;58477;48.072;11.970;2023-05-17T04:04:49;6.44;98.14
65207;SHT31;58477;48.072;11.970;2023-05-17T04:07:16;6.53;98.41
65207;SHT31;58477;48.072;11.970;2023-05-17T04:09:41;6.51;98.50
65207;SHT31;58477;48.072;11.970;2023-05-17T04:12:07;6.55;97.81
65207;SHT31;58477;48.072;11.970;2023-05-17T04:14:37;6.71;97.98
65207;SHT31;58477;48.072;11.970;2023-05-17T04:17:03;6.60;97.37
65207;SHT31;58477;48.072;11.970;2023-05-17T04:19:30;6.48;98.09
65207;SHT31;58477;48.072;11.970;2023-05-17T04:21:55;6.45;98.11
65207;SHT31;58477;48.072;11.970;2023-05-17T04:24:23;6.50;97.72
65207;SHT31;58477;48.072;11.970;2023-05-17T04:26:49;6.55;97.93
65207;SHT31;58477;48.072;11.970;2023-05-17T04:29:16;6.57;96.86
65207;SHT31;58477;48.072;11.970;2023-05-17T04:31:42;6.55;96.96
65207;SHT31;58477;48.072;11.970;2023-05-17T04:34:08;6.55;97.39
65207;SHT31;58477;48.072;11.970;2023-05-17T04:36:34;6.58;96.76
65207;SHT31;58477;48.072;11.970;2023-05-17T04:39:01;6.60;97.17
65207;SHT31;58477;48.072;11.970;2023-05-17T04:41:28;6.55;97.05
65207;SHT31;58477;48.072;11.970;2023-05-17T04:43:54;6.54;96.69
65207;SHT31;58477;48.072;11.970;2023-05-17T04:46:26;6.57;97.14
65207;SHT31;58477;48.072;11.970;2023-05-17T04:48:52;6.54;96.98
65207;SHT31;58477;48.072;11.970;2023-05-17T04:51:20;6.57;96.53
65207;SHT31;58477;48.072;11.970;2023-05-17T04:53:45;6.45;97.12
65207;SHT31;58477;48.072;11.970;2023-05-17T04:56:15;6.37;95.81
65207;SHT31;58477;48.072;11.970;2023-05-17T04:58:40;6.38;96.01
65207;SHT31;58477;48.072;11.970;2023-05-17T05:01:06;6.47;96.42
65207;SHT31;58477;48.072;11.970;2023-05-17T05:03:32;6.37;96.98
65207;SHT31;58477;48.072;11.970;2023-05-17T05:05:59;6.33;95.62
65207;SHT31;58477;48.072;11.970;2023-05-17T05:08:24;6.30;96.56
65207;SHT31;58477;48.072;11.970;2023-05-17T05:10:51;6.33;95.61
65207;SHT31;58477;48.072;11.970;2023-05-17T05:13:20;6.33;96.47
65207;SHT31;58477;48.072;11.970;2023-05-17T05:15:45;6.33;96.02
65207;SHT31;58477;48.072;11.970;2023-05-17T05:18:11;6.31;96.66
65207;SHT31;58477;48.072;11.970;2023-05-17T05:20:37;6.29;96.43
65207;SHT31;58477;48.072;11.970;2023-05-17T05:23:04;6.37;96.15
65207;SHT31;58477;48.072;11.970;2023-05-17T05:25:33;6.36;95.99
65207;SHT31;58477;48.072;11.970;2023-05-17T05:28:00;6.31;96.28
65207;SHT31;58477;48.072;11.970;2023-05-17T05:30:28;6.27;96.56
65207;SHT31;58477;48.072;11.970;2023-05-17T05:32:54;6.20;96.32
65207;SHT31;58477;48.072;11.970;2023-05-17T05:35:20;6.21;96.19
65207;SHT31;58477;48.072;11.970;2023-05-17T05:37:54;6.24;97.16
65207;SHT31;58477;48.072;11.970;2023-05-17T05:40:20;6.30;96.62
65207;SHT31;58477;48.072;11.970;2023-05-17T05:42:46;6.34;96.02
65207;SHT31;58477;48.072;11.970;2023-05-17T05:45:11;6.44;96.24
65207;SHT31;58477;48.072;11.970;2023-05-17T05:47:38;6.44;95.06
65207;SHT31;58477;48.072;11.970;2023-05-17T05:50:05;6.45;94.69
65207;SHT31;58477;48.072;11.970;2023-05-17T05:52:30;6.47;95.14
65207;SHT31;58477;48.072;11.970;2023-05-17T05:54:56;6.41;95.08
65207;SHT31;58477;48.072;11.970;2023-05-17T05:57:22;6.43;96.34
65207;SHT31;58477;48.072;11.970;2023-05-17T05:59:48;6.53;95.51
65207;SHT31;58477;48.072;11.970;2023-05-17T06:02:13;6.55;94.63
65207;SHT31;58477;48.072;11.970;2023-05-17T06:04:39;6.55;95.40
65207;SHT31;58477;48.072;11.970;2023-05-17T06:07:05;6.47;95.56
65207;SHT31;58477;48.072;11.970;2023-05-17T06:09:31;6.60;96.08
65207;SHT31;58477;48.072;11.970;2023-05-17T06:11:56;6.64;95.20
65207;SHT31;58477;48.072;11.970;2023-05-17T06:14:22;6.64;94.90
65207;SHT31;58477;48.072;11.970;2023-05-17T06:16:47;6.74;94.88
65207;SHT31;58477;48.072;11.970;2023-05-17T06:19:13;6.67;94.18
65207;SHT31;58477;48.072;11.970;2023-05-17T06:21:39;6.74;95.29
65207;SHT31;58477;48.072;11.970;2023-05-17T06:24:05;6.71;94.85
65207;SHT31;58477;48.072;11.970;2023-05-17T06:26:30;6.83;95.29
65207;SHT31;58477;48.072;11.970;2023-05-17T06:28:56;6.88;95.33
65207;SHT31;58477;48.072;11.970;2023-05-17T06:31:21;6.95;95.21
65207;SHT31;58477;48.072;11.970;2023-05-17T06:33:46;7.06;94.91
65207;SHT31;58477;48.072;11.970;2023-05-17T06:36:12;7.16;94.63
65207;SHT31;58477;48.072;11.970;2023-05-17T06:38:38;7.14;94.93
65207;SHT31;58477;48.072;11.970;2023-05-17T06:41:03;7.01;92.77
65207;SHT31;58477;48.072;11.970;2023-05-17T06:43:28;7.14;93.27
65207;SHT31;58477;48.072;11.970;2023-05-17T06:45:54;7.11;92.40
65207;SHT31;58477;48.072;11.970;2023-05-17T06:48:19;7.22;93.15
65207;SHT31;58477;48.072;11.970;2023-05-17T06:50:45;7.29;93.73
65207;SHT31;58477;48.072;11.970;2023-05-17T06:53:10;7.28;93.18
65207;SHT31;58477;48.072;11.970;2023-05-17T06:55:36;7.33;93.44
65207;SHT31;58477;48.072;11.970;2023-05-17T06:58:02;7.49;93.64
65207;SHT31;58477;48.072;11.970;2023-05-17T07:00:27;7.63;93.29
65207;SHT31;58477;48.072;11.970;2023-05-17T07:02:53;7.62;92.83
65207;SHT31;58477;48.072;11.970;2023-05-17T07:05:18;7.49;93.29
65207;SHT31;58477;48.072;11.970;2023-05-17T07:07:43;7.59;92.93
65207;SHT31;58477;48.072;11.970;2023-05-17T07:10:09;7.62;92.31
65207;SHT31;58477;48.072;11.970;2023-05-17T07:12:34;7.55;92.15
65207;SHT31;58477;48.072;11.970;2023-05-17T07:15:00;7.56;92.82
65207;SHT31;58477;48.072;11.970;2023-05-17T07:17:25;7.14;91.34
65207;SHT31;58477;48.072;11.970;2023-05-17T07:19:51;7.33;91.98
65207;SHT31;58477;48.072;11.970;2023-05-17T07:22:17;7.29;93.29
65207;SHT31;58477;48.072;11.970;2023-05-17T07:24:44;7.33;94.15
65207;SHT31;58477;48.072;11.970;2023-05-17T07:27:09;7.56;92.76
65207;SHT31;58477;48.072;11.970;2023-05-17T07:29:35;7.65;92.43
65207;SHT31;58477;48.072;11.970;2023-05-17T07:32:00;7.63;91.97
65207;SHT31;58477;48.072;11.970;2023-05-17T07:34:26;7.53;92.90
65207;SHT31;58477;48.072;11.970;2023-05-17T07:36:51;7.67;93.61
65207;SHT31;58477;48.072;11.970;2023-05-17T07:39:17;7.59;93.17
65207;SHT31;58477;48.072;11.970;2023-05-17T07:41:42;7.89;92.86
65207;SHT31;58477;48.072;11.970;2023-05-17T07:44:07;8.14;92.03
65207;SHT31;58477;48.072;11.970;2023-05-17T07:46:33;8.05;91.35
65207;SHT31;58477;48.072;11.970;2023-05-17T07:48:58;8.20;90.52
65207;SHT31;58477;48.072;11.970;2023-05-17T07:51:23;8.49;92.17
65207;SHT31;58477;48.072;11.970;2023-05-17T07:53:49;8.57;91.30
65207;SHT31;58477;48.072;11.970;2023-05-17T07:56:14;8.47;90.74
65207;SHT31;58477;48.072;11.970;2023-05-17T07:58:40;8.89;90.95
65207;SHT31;58477;48.072;11.970;2023-05-17T08:01:05;8.58;90.72
65207;SHT31;58477;48.072;11.970;2023-05-17T08:03:31;8.89;90.72
65207;SHT31;58477;48.072;11.970;2023-05-17T08:05:56;9.16;90.15
65207;SHT31;58477;48.072;11.970;2023-05-17T08:08:22;9.66;88.90
65207;SHT31;58477;48.072;11.970;2023-05-17T08:10:47;9.71;88.17
65207;SHT31;58477;48.072;11.970;2023-05-17T08:13:13;10.05;87.06
65207;SHT31;58477;48.072;11.970;2023-05-17T08:15:40;10.42;87.13
65207;SHT31;58477;48.072;11.970;2023-05-17T08:18:06;10.38;86.26
65207;SHT31;58477;48.072;11.970;2023-05-17T08:20:31;10.83;85.64
65207;SHT31;58477;48.072;11.970;2023-05-17T08:22:56;11.24;86.54
65207;SHT31;58477;48.072;11.970;2023-05-17T08:25:22;11.10;85.21
65207;SHT31;58477;48.072;11.970;2023-05-17T08:27:47;11.70;85.01
65207;SHT31;58477;48.072;11.970;2023-05-17T08:30:13;11.66;82.58
65207;SHT31;58477;48.072;11.970;2023-05-17T08:32:38;11.43;83.94
65207;SHT31;58477;48.072;11.970;2023-05-17T08:35:04;10.89;84.90
65207;SHT31;58477;48.072;11.970;2023-05-17T08:37:29;10.63;86.41
65207;SHT31;58477;48.072;11.970;2023-05-17T08:39:55;10.63;85.94
65207;SHT31;58477;48.072;11.970;2023-05-17T08:42:21;10.42;84.54
65207;SHT31;58477;48.072;11.970;2023-05-17T08:44:50;10.42;86.42
65207;SHT31;58477;48.072;11.970;2023-05-17T08:47:16;10.68;83.56
65207;SHT31;58477;48.072;11.970;2023-05-17T08:49:53;9.69;85.95
65207;SHT31;58477;48.072;11.970;2023-05-17T08:52:19;9.84;85.82
65207;SHT31;58477;48.072;11.970;2023-05-17T08:54:46;9.40;88.06
65207;SHT31;58477;48.072;11.970;2023-05-17T08:57:13;9.53;87.13
65207;SHT31;58477;48.072;11.970;2023-05-17T08:59:40;9.44;88.53
65207;SHT31;58477;48.072;11.970;2023-05-17T09:02:05;8.88;88.31
65207;SHT31;58477;48.072;11.970;2023-05-17T09:04:31;9.22;87.34
65207;SHT31;58477;48.072;11.970;2023-05-17T09:06:57;8.96;89.22
65207;SHT31;58477;48.072;11.970;2023-05-17T09:09:23;9.46;87.86
65207;SHT31;58477;48.072;11.970;2023-05-17T09:11:49;9.44;86.71
65207;SHT31;58477;48.072;11.970;2023-05-17T09:14:15;9.81;87.21
65207;SHT31;58477;48.072;11.970;2023-05-17T09:16:44;9.88;86.67
65207;SHT31;58477;48.072;11.970;2023-05-17T09:19:14;9.66;86.32
65207;SHT31;58477;48.072;11.970;2023-05-17T09:21:47;10.37;86.36
65207;SHT31;58477;48.072;11.970;2023-05-17T09:24:12;10.22;88.26
65207;SHT31;58477;48.072;11.970;2023-05-17T09:29:11;10.45;86.52
65207;SHT31;58477;48.072;11.970;2023-05-17T09:31:38;10.27;86.43
65207;SHT31;58477;48.072;11.970;2023-05-17T09:34:04;10.32;84.79
65207;SHT31;58477;48.072;11.970;2023-05-17T09:36:31;10.24;83.06
65207;SHT31;58477;48.072;11.970;2023-05-17T09:39:00;10.14;85.81
65207;SHT31;58477;48.072;11.970;2023-05-17T09:41:27;9.95;84.22
65207;SHT31;58477;48.072;11.970;2023-05-17T09:43:59;10.41;85.46
65207;SHT31;58477;48.072;11.970;2023-05-17T09:46:25;10.91;83.26
65207;SHT31;58477;48.072;11.970;2023-05-17T09:48:53;11.03;82.06
65207;SHT31;58477;48.072;11.970;2023-05-17T09:51:39;11.51;81.34
65207;SHT31;58477;48.072;11.970;2023-05-17T09:54:06;11.88;78.76
65207;SHT31;58477;48.072;11.970;2023-05-17T09:56:32;11.92;80.73
65207;SHT31;58477;48.072;11.970;2023-05-17T09:59:03;12.24;81.13
65207;SHT31;58477;48.072;11.970;2023-05-17T10:01:29;12.28;82.38
65207;SHT31;58477;48.072;11.970;2023-05-17T10:04:01;11.98;79.91
65207;SHT31;58477;48.072;11.970;2023-05-17T10:06:28;11.99;81.73
65207;SHT31;58477;48.072;11.970;2023-05-17T10:08:56;11.71;81.84
65207;SHT31;58477;48.072;11.970;2023-05-17T10:11:27;11.00;84.97
65207;SHT31;58477;48.072;11.970;2023-05-17T10:14:06;10.18;84.00
65207;SHT31;58477;48.072;11.970;2023-05-17T10:16:36;10.62;84.98
65207;SHT31;58477;48.072;11.970;2023-05-17T10:19:02;10.58;84.91
65207;SHT31;58477;48.072;11.970;2023-05-17T10:21:31;10.38;85.87
65207;SHT31;58477;48.072;11.970;2023-05-17T10:24:06;10.31;84.97
65207;SHT31;58477;48.072;11.970;2023-05-17T10:26:32;10.79;84.98
65207;SHT31;58477;48.072;11.970;2023-05-17T10:28:59;10.89;82.05
65207;SHT31;58477;48.072;11.970;2023-05-17T10:31:29;10.97;83.42
65207;SHT31;58477;48.072;11.970;2023-05-17T10:33:55;10.91;82.42
65207;SHT31;58477;48.072;11.970;2023-05-17T10:36:23;11.12;82.58
65207;SHT31;58477;48.072;11.970;2023-05-17T10:38:50;10.96;82.28
65207;SHT31;58477;48.072;11.970;2023-05-17T10:41:17;11.51;82.36
65207;SHT31;58477;48.072;11.970;2023-05-17T10:43:43;12.22;81.32
65207;SHT31;58477;48.072;11.970;2023-05-17T10:46:17;12.90;77.66
65207;SHT31;58477;48.072;11.970;2023-05-17T10:48:53;13.55;80.32
65207;SHT31;58477;48.072;11.970;2023-05-17T10:51:24;14.55;77.50
65207;SHT31;58477;48.072;11.970;2023-05-17T10:54:12;14.75;77.55
65207;SHT31;58477;48.072;11.970;2023-05-17T10:56:40;13.97;75.33
65207;SHT31;58477;48.072;11.970;2023-05-17T10:59:13;13.46;76.92
65207;SHT31;58477;48.072;11.970;2023-05-17T11:02:05;11.87;76.12
65207;SHT31;58477;48.072;11.970;2023-05-17T11:04:42;12.28;79.68
65207;SHT31;58477;48.072;11.970;2023-05-17T11:07:19;12.02;81.12
65207;SHT31;58477;48.072;11.970;2023-05-17T11:15:05;14.19;75.25
65207;SHT31;58477;48.072;11.970;2023-05-17T11:18:01;15.38;70.70
65207;SHT31;58477;48.072;11.970;2023-05-17T11:20:32;15.23;70.93
65207;SHT31;58477;48.072;11.970;2023-05-17T11:23:04;14.83;71.97
65207;SHT31;58477;48.072;11.970;2023-05-17T11:27:57;13.02;76.37
65207;SHT31;58477;48.072;11.970;2023-05-17T11:30:25;12.87;78.54
65207;SHT31;58477;48.072;11.970;2023-05-17T11:32:52;12.89;76.70
65207;SHT31;58477;48.072;11.970;2023-05-17T11:35:22;12.46;77.01
65207;SHT31;58477;48.072;11.970;2023-05-17T11:37:51;12.56;79.20
65207;SHT31;58477;48.072;11.970;2023-05-17T11:40:25;11.98;78.73
65207;SHT31;58477;48.072;11.970;2023-05-17T11:43:09;11.70;80.12
65207;SHT31;58477;48.072;11.970;2023-05-17T11:45:41;11.57;80.70
65207;SHT31;58477;48.072;11.970;2023-05-17T11:48:07;10.99;82.00
65207;SHT31;58477;48.072;11.970;2023-05-17T11:50:35;10.83;82.22
65207;SHT31;58477;48.072;11.970;2023-05-17T11:53:04;10.97;83.39
65207;SHT31;58477;48.072;11.970;2023-05-17T11:55:32;11.07;83.15
65207;SHT31;58477;48.072;11.970;2023-05-17T11:57:57;11.30;83.73
65207;SHT31;58477;48.072;11.970;2023-05-17T12:00:26;11.13;81.98
65207;SHT31;58477;48.072;11.970;2023-05-17T12:02:51;10.44;83.34
65207;SHT31;58477;48.072;11.970;2023-05-17T12:05:20;10.27;84.12
65207;SHT31;58477;48.072;11.970;2023-05-17T12:07:46;10.52;83.76
65207;SHT31;58477;48.072;11.970;2023-05-17T12:10:14;10.72;82.63
65207;SHT31;58477;48.072;11.970;2023-05-17T12:12:40;10.66;84.33
65207;SHT31;58477;48.072;11.970;2023-05-17T12:15:06;10.65;84.28
65207;SHT31;58477;48.072;11.970;2023-05-17T12:17:37;10.58;83.69
65207;SHT31;58477;48.072;11.970;2023-05-17T12:20:07;10.76;84.62
65207;SHT31;58477;48.072;11.970;2023-05-17T12:22:33;10.88;84.95
65207;SHT31;58477;48.072;11.970;2023-05-17T12:24:58;10.79;83.02
65207;SHT31;58477;48.072;11.970;2023-05-17T12:27:24;10.73;82.38
65207;SHT31;58477;48.072;11.970;2023-05-17T12:29:51;10.61;83.37
65207;SHT31;58477;48.072;11.970;2023-05-17T12:32:18;10.73;83.12
65207;SHT31;58477;48.072;11.970;2023-05-17T12:34:45;10.51;84.67
65207;SHT31;58477;48.072;11.970;2023-05-17T12:37:11;10.56;83.66
65207;SHT31;58477;48.072;11.970;2023-05-17T12:39:38;10.62;83.62
65207;SHT31;58477;48.072;11.970;2023-05-17T12:42:04;10.66;83.65
65207;SHT31;58477;48.072;11.970;2023-05-17T12:44:31;10.59;84.08
65207;SHT31;58477;48.072;11.970;2023-05-17T12:46:56;10.55;83.08
65207;SHT31;58477;48.072;11.970;2023-05-17T12:49:26;10.28;85.10
65207;SHT31;58477;48.072;11.970;2023-05-17T12:51:51;10.52;85.23
65207;SHT31;58477;48.072;11.970;2023-05-17T12:56:48;10.58;85.41
65207;SHT31;58477;48.072;11.970;2023-05-17T12:59:14;10.86;85.79
65207;SHT31;58477;48.072;11.970;2023-05-17T13:01:49;11.00;86.04
65207;SHT31;58477;48.072;11.970;2023-05-17T13:04:17;10.82;84.53
65207;SHT31;58477;48.072;11.970;2023-05-17T13:09:17;11.00;83.27
65207;SHT31;58477;48.072;11.970;2023-05-17T13:11:53;11.17;84.20
65207;SHT31;58477;48.072;11.970;2023-05-17T13:14:41;11.12;81.46
65207;SHT31;58477;48.072;11.970;2023-05-17T13:19:33;11.63;81.49
65207;SHT31;58477;48.072;11.970;2023-05-17T13:22:00;11.82;80.97
65207;SHT31;58477;48.072;11.970;2023-05-17T13:24:26;11.91;82.02
65207;SHT31;58477;48.072;11.970;2023-05-17T13:26:54;11.88;79.52
65207;SHT31;58477;48.072;11.970;2023-05-17T13:29:20;11.97;81.62
65207;SHT31;58477;48.072;11.970;2023-05-17T13:31:45;12.34;79.76
65207;SHT31;58477;48.072;11.970;2023-05-17T13:34:12;12.21;78.89
65207;SHT31;58477;48.072;11.970;2023-05-17T13:36:37;12.42;78.78
65207;SHT31;58477;48.072;11.970;2023-05-17T13:39:03;11.70;79.65
65207;SHT31;58477;48.072;11.970;2023-05-17T13:41:29;12.29;78.81
65207;SHT31;58477;48.072;11.970;2023-05-17T13:43:54;12.63;77.81
65207;SHT31;58477;48.072;11.970;2023-05-17T13:46:21;12.49;77.03
65207;SHT31;58477;48.072;11.970;2023-05-17T13:48:47;12.42;77.64
65207;SHT31;58477;48.072;11.970;2023-05-17T13:51:12;13.04;76.56
65207;SHT31;58477;48.072;11.970;2023-05-17T13:53:38;13.30;74.70
65207;SHT31;58477;48.072;11.970;2023-05-17T13:56:04;12.49;74.53
65207;SHT31;58477;48.072;11.970;2023-05-17T13:58:29;13.41;75.14
65207;SHT31;58477;48.072;11.970;2023-05-17T14:00:55;13.51;76.44
65207;SHT31;58477;48.072;11.970;2023-05-17T14:03:20;13.94;73.07
65207;SHT31;58477;48.072;11.970;2023-05-17T14:05:46;14.02;71.97
65207;SHT31;58477;48.072;11.970;2023-05-17T14:08:15;13.98;71.91
65207;SHT31;58477;48.072;11.970;2023-05-17T14:10:41;13.81;72.31
65207;SHT31;58477;48.072;11.970;2023-05-17T14:13:06;14.22;70.94
65207;SHT31;58477;48.072;11.970;2023-05-17T14:15:32;14.11;70.61
65207;SHT31;58477;48.072;11.970;2023-05-17T14:18:05;13.88;72.14
65207;SHT31;58477;48.072;11.970;2023-05-17T14:20:32;13.04;73.26
65207;SHT31;58477;48.072;11.970;2023-05-17T14:22:58;13.70;71.95
65207;SHT31;58477;48.072;11.970;2023-05-17T14:25:24;13.86;72.09
65207;SHT31;58477;48.072;11.970;2023-05-17T14:27:50;14.16;69.74
65207;SHT31;58477;48.072;11.970;2023-05-17T14:30:15;14.48;70.32
65207;SHT31;58477;48.072;11.970;2023-05-17T14:32:41;14.05;68.71
65207;SHT31;58477;48.072;11.970;2023-05-17T14:35:07;13.82;69.24
65207;SHT31;58477;48.072;11.970;2023-05-17T14:37:33;14.04;70.31
65207;SHT31;58477;48.072;11.970;2023-05-17T14:39:59;14.02;71.90
65207;SHT31;58477;48.072;11.970;2023-05-17T14:42:25;13.53;71.15
65207;SHT31;58477;48.072;11.970;2023-05-17T14:44:51;13.61;72.80
65207;SHT31;58477;48.072;11.970;2023-05-17T14:47:16;13.37;71.74
65207;SHT31;58477;48.072;11.970;2023-05-17T14:49:42;13.57;71.08
65207;SHT31;58477;48.072;11.970;2023-05-17T14:52:08;13.62;71.13
65207;SHT31;58477;48.072;11.970;2023-05-17T14:54:34;13.30;71.80
65207;SHT31;58477;48.072;11.970;2023-05-17T14:57:00;13.23;73.36
65207;SHT31;58477;48.072;11.970;2023-05-17T14:59:25;13.33;73.12
65207;SHT31;58477;48.072;11.970;2023-05-17T15:01:51;13.58;70.96
65207;SHT31;58477;48.072;11.970;2023-05-17T15:04:18;13.77;71.48
65207;SHT31;58477;48.072;11.970;2023-05-17T15:06:43;13.89;71.09
65207;SHT31;58477;48.072;11.970;2023-05-17T15:09:09;14.25;71.48
65207;SHT31;58477;48.072;11.970;2023-05-17T15:11:37;14.21;69.36
65207;SHT31;58477;48.072;11.970;2023-05-17T15:14:03;14.11;70.10
65207;SHT31;58477;48.072;11.970;2023-05-17T15:16:30;13.64;72.10
65207;SHT31;58477;48.072;11.970;2023-05-17T15:18:55;13.50;72.39
65207;SHT31;58477;48.072;11.970;2023-05-17T15:21:21;13.04;72.94
65207;SHT31;58477;48.072;11.970;2023-05-17T15:23:46;13.02;74.81
65207;SHT31;58477;48.072;11.970;2023-05-17T15:26:14;12.97;76.24
65207;SHT31;58477;48.072;11.970;2023-05-17T15:28:39;12.35;75.36
65207;SHT31;58477;48.072;11.970;2023-05-17T15:31:05;12.67;76.66
65207;SHT31;58477;48.072;11.970;2023-05-17T15:33:31;12.72;76.85
65207;SHT31;58477;48.072;11.970;2023-05-17T15:35:57;12.85;77.37
65207;SHT31;58477;48.072;11.970;2023-05-17T15:38:22;13.03;77.98
65207;SHT31;58477;48.072;11.970;2023-05-17T15:40:59;13.34;76.26
65207;SHT31;58477;48.072;11.970;2023-05-17T15:43:26;13.41;74.20
65207;SHT31;58477;48.072;11.970;2023-05-17T15:45:52;13.30;74.48
65207;SHT31;58477;48.072;11.970;2023-05-17T15:48:17;13.23;74.00
65207;SHT31;58477;48.072;11.970;2023-05-17T15:50:43;13.03;74.87
65207;SHT31;58477;48.072;11.970;2023-05-17T15:53:08;12.97;73.90